Vlagtwedde, Netherlands
Current Conditions -  °F | °C
As of 2:25 PM on Friday 28 Nov 2014 (Local Time) from EHGG Reporting Station
Clear Clear  
Wind Chill: 30°   Ceiling: Unl
Heat Index: 39°   Visibility: 5mi
Dew Point: 34°   Wind: 16mph
Humidity: 81%   Direction: 100°E
Pressure: 29.88"   Gusts: NA
Location:  53.03°N, 7.11°E
Report Text: EHGG 281325Z AUTO 10014KT 060V160 8000 NCD 04/01 Q1012 NOSIG
Loading
Personal Weather Stations






























Interactive Weather Map New forecast layout! Learn more

10-Day Weather Forecast

Advertisements
Track Severe Weather on mobile